createdAt,value
2022-08-19T00:00:53.665Z,50.67
2022-08-19T00:01:53.892Z,50.63
2022-08-19T00:02:54.095Z,50.70
2022-08-19T00:03:53.854Z,50.82
2022-08-19T00:04:54.060Z,50.69
2022-08-19T00:05:54.002Z,50.63
2022-08-19T00:06:54.105Z,50.65
2022-08-19T00:07:54.208Z,50.63
2022-08-19T00:08:54.256Z,50.66
2022-08-19T00:09:54.338Z,50.55
2022-08-19T00:10:54.413Z,50.54
2022-08-19T00:11:54.463Z,50.43
2022-08-19T00:12:54.569Z,50.46
2022-08-19T00:13:56.391Z,50.49
2022-08-19T00:14:54.704Z,50.40
2022-08-19T00:15:54.777Z,50.42
2022-08-19T00:16:54.849Z,50.33
2022-08-19T00:17:54.929Z,50.43
2022-08-19T00:18:55.029Z,50.39
2022-08-19T00:19:55.102Z,50.33
2022-08-19T00:20:55.180Z,50.44
2022-08-19T00:21:55.263Z,50.35
2022-08-19T00:22:55.355Z,50.42
2022-08-19T00:23:55.445Z,50.48
2022-08-19T00:24:55.519Z,50.46
2022-08-19T00:25:55.647Z,50.58
2022-08-19T00:26:55.690Z,50.56
2022-08-19T00:27:55.772Z,50.60
2022-08-19T00:28:55.861Z,50.55
2022-08-19T00:29:55.912Z,50.62
2022-08-19T00:30:55.991Z,50.62
2022-08-19T00:31:56.062Z,50.62
2022-08-19T00:32:56.137Z,50.57
2022-08-19T00:33:56.236Z,50.66
2022-08-19T00:34:56.301Z,50.69
2022-08-19T00:35:56.414Z,50.69
2022-08-19T00:36:56.468Z,50.83
2022-08-19T00:37:56.534Z,50.82
2022-08-19T00:38:56.647Z,50.80
2022-08-19T00:39:56.871Z,50.80
2022-08-19T00:40:56.785Z,50.74
2022-08-19T00:41:56.887Z,50.80
2022-08-19T00:42:56.980Z,50.87
2022-08-19T00:43:57.070Z,50.94
2022-08-19T00:44:57.131Z,50.87
2022-08-19T00:45:57.227Z,51.00
2022-08-19T00:46:58.140Z,51.15
2022-08-19T00:47:57.385Z,51.04
2022-08-19T00:48:57.479Z,51.02
2022-08-19T00:49:57.553Z,51.14
2022-08-19T00:50:57.642Z,51.12
2022-08-19T00:51:57.729Z,51.08
2022-08-19T00:52:57.785Z,51.09
2022-08-19T00:53:57.847Z,51.15
2022-08-19T00:54:57.924Z,51.06
2022-08-19T00:55:58.018Z,51.10
2022-08-19T00:56:58.102Z,51.27
2022-08-19T00:57:58.185Z,51.14
2022-08-19T00:58:58.310Z,51.14
2022-08-19T01:00:02.548Z,51.23
2022-08-19T01:00:58.405Z,51.36
2022-08-19T01:01:58.506Z,51.46
2022-08-19T01:02:58.574Z,51.54
2022-08-19T01:03:58.887Z,51.48
2022-08-19T01:04:58.696Z,51.49
2022-08-19T01:05:58.785Z,51.71
2022-08-19T01:06:58.871Z,51.69
2022-08-19T01:07:58.945Z,51.61
2022-08-19T01:08:59.035Z,51.62
2022-08-19T01:09:59.113Z,51.60
2022-08-19T01:10:59.196Z,51.53
2022-08-19T01:11:59.249Z,51.69
2022-08-19T01:12:59.330Z,51.58
2022-08-19T01:13:59.423Z,51.61
2022-08-19T01:14:59.503Z,51.53
2022-08-19T01:15:59.591Z,51.53
2022-08-19T01:16:59.664Z,51.70
2022-08-19T01:17:59.744Z,51.70
2022-08-19T01:18:59.840Z,51.63
2022-08-19T01:19:59.919Z,51.64
2022-08-19T01:20:59.991Z,51.66
2022-08-19T01:22:00.063Z,51.69
2022-08-19T01:23:00.147Z,51.82
2022-08-19T01:24:00.229Z,51.93
2022-08-19T01:25:00.327Z,51.76
2022-08-19T01:26:00.395Z,51.87
2022-08-19T01:27:00.481Z,51.97
2022-08-19T01:28:09.960Z,51.96
2022-08-19T01:29:00.829Z,51.99
2022-08-19T01:30:00.706Z,51.88
2022-08-19T01:31:00.785Z,51.98
2022-08-19T01:32:00.857Z,51.87
2022-08-19T01:33:00.970Z,51.78
2022-08-19T01:34:01.000Z,51.81
2022-08-19T01:35:01.077Z,51.89
2022-08-19T01:36:01.160Z,51.86
2022-08-19T01:37:01.245Z,51.74
2022-08-19T01:38:01.345Z,51.81
2022-08-19T01:39:01.397Z,51.94
2022-08-19T01:40:01.544Z,51.99
2022-08-19T01:41:01.562Z,51.96
2022-08-19T01:42:01.636Z,51.88
2022-08-19T01:43:01.738Z,51.96
2022-08-19T01:44:09.777Z,52.02
2022-08-19T01:45:01.868Z,52.03
2022-08-19T01:46:01.938Z,51.84
2022-08-19T01:47:02.020Z,51.94
2022-08-19T01:48:02.699Z,51.99
2022-08-19T01:49:02.181Z,52.04
2022-08-19T01:50:02.260Z,52.02
2022-08-19T01:51:02.353Z,51.96
2022-08-19T01:52:02.427Z,52.10
2022-08-19T01:53:06.988Z,52.05
2022-08-19T01:54:02.591Z,52.03
2022-08-19T01:55:02.669Z,52.22
2022-08-19T01:56:02.737Z,52.28
2022-08-19T01:57:02.816Z,52.21
2022-08-19T01:58:02.900Z,52.21
2022-08-19T01:59:02.992Z,52.20
2022-08-19T02:00:03.074Z,52.16
2022-08-19T02:01:03.180Z,52.26
2022-08-19T02:02:03.254Z,52.33
2022-08-19T02:03:03.348Z,52.26
2022-08-19T02:04:03.421Z,52.28
2022-08-19T02:05:03.495Z,52.30
2022-08-19T02:06:03.583Z,52.23
2022-08-19T02:07:03.670Z,52.32
2022-08-19T02:08:03.757Z,52.49
2022-08-19T02:09:03.842Z,52.40
2022-08-19T02:10:03.933Z,52.38
2022-08-19T02:11:04.009Z,52.40
2022-08-19T02:12:04.073Z,52.41
2022-08-19T02:13:04.183Z,52.39
2022-08-19T02:14:04.225Z,52.34
2022-08-19T02:15:04.300Z,52.33
2022-08-19T02:16:04.596Z,52.29
2022-08-19T02:17:04.461Z,52.49
2022-08-19T02:18:04.563Z,52.34
2022-08-19T02:19:04.630Z,52.34
2022-08-19T02:20:04.718Z,52.42
2022-08-19T02:21:04.810Z,52.49
2022-08-19T02:22:04.887Z,52.39
2022-08-19T02:23:04.971Z,52.49
2022-08-19T02:24:05.042Z,52.59
2022-08-19T02:25:05.120Z,52.45
2022-08-19T02:26:05.191Z,52.49
2022-08-19T02:27:05.299Z,52.52
2022-08-19T02:28:05.350Z,52.51
2022-08-19T02:29:05.437Z,52.45
2022-08-19T02:30:05.517Z,52.52
2022-08-19T02:31:05.591Z,52.53
2022-08-19T02:32:05.674Z,52.49
2022-08-19T02:33:05.763Z,52.45
2022-08-19T02:34:05.835Z,52.47
2022-08-19T02:35:12.229Z,52.63
2022-08-19T02:36:05.993Z,52.65
2022-08-19T02:37:06.068Z,52.54
2022-08-19T02:38:06.157Z,52.53
2022-08-19T02:39:06.237Z,52.63
2022-08-19T02:40:12.514Z,52.60
2022-08-19T02:41:06.396Z,52.72
2022-08-19T02:42:06.475Z,52.63
2022-08-19T02:43:06.558Z,52.63
2022-08-19T02:44:26.673Z,52.54
2022-08-19T02:45:06.707Z,52.60
2022-08-19T02:46:06.789Z,52.56
2022-08-19T02:47:06.881Z,52.50
2022-08-19T02:48:12.743Z,52.56
2022-08-19T02:49:07.046Z,52.64
2022-08-19T02:50:07.127Z,52.52
2022-08-19T02:51:07.206Z,52.52
2022-08-19T02:52:07.288Z,52.55
2022-08-19T02:53:07.380Z,52.57
2022-08-19T02:54:07.440Z,52.47
2022-08-19T02:55:07.528Z,52.53
2022-08-19T02:56:07.609Z,52.45
2022-08-19T02:57:07.703Z,52.44
2022-08-19T02:58:08.291Z,52.49
2022-08-19T02:59:07.851Z,52.47
2022-08-19T03:00:07.940Z,52.45
2022-08-19T03:01:08.068Z,52.41
2022-08-19T03:02:08.112Z,52.42
2022-08-19T03:03:08.204Z,52.52
2022-08-19T03:04:08.265Z,52.40
2022-08-19T03:05:08.337Z,52.43
2022-08-19T03:06:08.410Z,52.49
2022-08-19T03:07:10.523Z,52.45
2022-08-19T03:08:08.621Z,52.38
2022-08-19T03:09:08.653Z,52.45
2022-08-19T03:10:08.743Z,52.41
2022-08-19T03:11:08.824Z,52.49
2022-08-19T03:12:08.900Z,52.32
2022-08-19T03:13:08.992Z,52.26
2022-08-19T03:14:09.074Z,52.33
2022-08-19T03:15:09.176Z,52.32
2022-08-19T03:16:09.220Z,52.27
2022-08-19T03:17:09.297Z,52.24
2022-08-19T03:18:09.393Z,52.18
2022-08-19T03:19:09.458Z,52.26
2022-08-19T03:20:09.557Z,52.36
2022-08-19T03:21:12.239Z,52.31
2022-08-19T03:22:09.713Z,52.29
2022-08-19T03:23:09.798Z,52.27
2022-08-19T03:24:09.868Z,52.16
2022-08-19T03:25:09.939Z,52.17
2022-08-19T03:26:15.984Z,52.09
2022-08-19T03:27:10.097Z,52.22
2022-08-19T03:28:10.198Z,52.37
2022-08-19T03:29:10.270Z,52.26
2022-08-19T03:30:11.640Z,52.35
2022-08-19T03:31:41.890Z,52.39
2022-08-19T03:32:10.589Z,52.30
2022-08-19T03:33:10.607Z,52.39
2022-08-19T03:34:10.680Z,52.29
2022-08-19T03:35:10.752Z,52.17
2022-08-19T03:36:10.850Z,52.18
2022-08-19T03:37:10.930Z,52.11
2022-08-19T03:38:11.019Z,52.13
2022-08-19T03:39:11.078Z,52.22
2022-08-19T03:40:16.442Z,52.26
2022-08-19T03:41:11.234Z,52.30
2022-08-19T03:42:38.873Z,52.19
2022-08-19T03:43:11.416Z,52.25
2022-08-19T03:44:12.625Z,52.26
2022-08-19T03:45:11.543Z,52.30
2022-08-19T03:46:11.635Z,52.21
2022-08-19T03:47:11.688Z,52.23
2022-08-19T03:48:11.769Z,52.24
2022-08-19T03:49:14.452Z,52.23
2022-08-19T03:50:11.940Z,52.10
2022-08-19T03:51:12.009Z,52.11
2022-08-19T03:52:12.100Z,52.13
2022-08-19T03:53:12.179Z,52.12
2022-08-19T03:54:12.250Z,52.19
2022-08-19T03:55:12.342Z,52.11
2022-08-19T03:56:12.443Z,52.04
2022-08-19T03:57:12.486Z,52.20
2022-08-19T03:58:12.569Z,51.96
2022-08-19T03:59:12.662Z,51.99
2022-08-19T04:00:14.016Z,52.15
2022-08-19T04:01:12.815Z,52.15
2022-08-19T04:02:12.888Z,52.02
2022-08-19T04:03:12.960Z,51.92
2022-08-19T04:04:13.053Z,52.08
2022-08-19T04:05:13.113Z,52.04
2022-08-19T04:06:13.201Z,52.12
2022-08-19T04:07:13.240Z,52.09
2022-08-19T04:08:14.046Z,52.18
2022-08-19T04:09:13.381Z,52.20
2022-08-19T04:10:13.461Z,52.19
2022-08-19T04:11:13.528Z,52.40
2022-08-19T04:12:13.633Z,52.48
2022-08-19T04:13:13.674Z,52.28
2022-08-19T04:14:13.794Z,52.43
2022-08-19T04:15:13.884Z,52.34
2022-08-19T04:16:13.953Z,52.40
2022-08-19T04:17:14.051Z,52.24
2022-08-19T04:18:14.135Z,52.25
2022-08-19T04:19:14.219Z,52.15
2022-08-19T04:20:14.344Z,52.11
2022-08-19T04:21:14.387Z,51.99
2022-08-19T04:22:14.467Z,51.93
2022-08-19T04:23:14.529Z,51.91
2022-08-19T04:24:14.614Z,51.89
2022-08-19T04:25:14.694Z,51.81
2022-08-19T04:26:14.777Z,51.80
2022-08-19T04:27:14.873Z,51.73
2022-08-19T04:28:14.960Z,51.71
2022-08-19T04:29:15.034Z,51.70
2022-08-19T04:30:15.129Z,51.64
2022-08-19T04:31:15.212Z,51.66
2022-08-19T04:32:15.309Z,51.64
2022-08-19T04:33:15.407Z,51.58
2022-08-19T04:34:15.469Z,51.55
2022-08-19T04:35:17.658Z,51.47
2022-08-19T04:36:15.599Z,51.47
2022-08-19T04:37:15.676Z,51.44
2022-08-19T04:38:15.750Z,51.40
2022-08-19T04:39:15.823Z,51.37
2022-08-19T04:40:15.901Z,51.34
2022-08-19T04:41:15.972Z,51.27
2022-08-19T04:42:16.076Z,51.25
2022-08-19T04:43:16.146Z,51.24
2022-08-19T04:44:16.223Z,51.21
2022-08-19T04:45:17.537Z,51.16
2022-08-19T04:46:32.622Z,51.14
2022-08-19T04:47:16.478Z,51.11
2022-08-19T04:48:19.666Z,51.09
2022-08-19T04:49:16.642Z,51.07
2022-08-19T04:50:16.721Z,51.11
2022-08-19T04:51:16.841Z,51.05
2022-08-19T04:52:16.925Z,51.20
2022-08-19T04:53:16.982Z,51.30
2022-08-19T04:54:23.941Z,51.41
2022-08-19T04:55:17.122Z,51.54
2022-08-19T04:56:17.200Z,51.57
2022-08-19T04:57:17.288Z,51.66
2022-08-19T04:58:17.393Z,51.63
2022-08-19T04:59:17.447Z,51.78
2022-08-19T05:00:17.520Z,51.76
2022-08-19T05:01:17.639Z,51.78
2022-08-19T05:02:17.725Z,51.79
2022-08-19T05:03:17.772Z,51.86
2022-08-19T05:04:17.876Z,51.98
2022-08-19T05:05:17.960Z,51.93
2022-08-19T05:06:18.060Z,52.03
2022-08-19T05:07:18.129Z,52.14
2022-08-19T05:08:18.213Z,51.99
2022-08-19T05:09:18.294Z,51.93
2022-08-19T05:10:18.457Z,52.01
2022-08-19T05:11:18.463Z,52.01
2022-08-19T05:12:18.555Z,51.98
2022-08-19T05:13:18.629Z,52.09
2022-08-19T05:14:18.707Z,52.11
2022-08-19T05:15:18.794Z,52.05
2022-08-19T05:16:18.883Z,52.09
2022-08-19T05:17:28.161Z,52.23
2022-08-19T05:18:19.057Z,52.32
2022-08-19T05:19:19.108Z,52.30
2022-08-19T05:20:19.195Z,52.31
2022-08-19T05:21:19.280Z,52.26
2022-08-19T05:22:19.391Z,52.23
2022-08-19T05:23:22.811Z,52.25
2022-08-19T05:24:19.509Z,52.30
2022-08-19T05:25:19.599Z,52.29
2022-08-19T05:26:19.674Z,52.29
2022-08-19T05:27:19.733Z,52.31
2022-08-19T05:28:19.817Z,52.37
2022-08-19T05:29:19.899Z,52.33
2022-08-19T05:30:20.381Z,52.42
2022-08-19T05:31:20.082Z,52.42
2022-08-19T05:32:20.181Z,52.40
2022-08-19T05:33:20.233Z,52.37
2022-08-19T05:34:20.596Z,52.39
2022-08-19T05:35:20.383Z,52.44
2022-08-19T05:36:20.467Z,52.40
2022-08-19T05:37:20.533Z,52.40
2022-08-19T05:38:20.636Z,52.40
2022-08-19T05:39:20.711Z,52.40
2022-08-19T05:40:20.792Z,52.44
2022-08-19T05:41:20.841Z,52.46
2022-08-19T05:42:20.942Z,52.44
2022-08-19T05:43:20.994Z,52.50
2022-08-19T05:44:21.087Z,52.42
2022-08-19T05:45:21.166Z,52.52
2022-08-19T05:46:27.667Z,52.52
2022-08-19T05:47:21.340Z,52.43
2022-08-19T05:48:21.440Z,52.39
2022-08-19T05:49:21.482Z,52.40
2022-08-19T05:50:21.543Z,52.45
2022-08-19T05:51:21.610Z,52.46
2022-08-19T05:52:25.849Z,52.39
2022-08-19T05:53:21.791Z,52.42
2022-08-19T05:54:21.854Z,52.40
2022-08-19T05:55:21.935Z,52.39
2022-08-19T05:56:22.019Z,52.44
2022-08-19T05:57:22.113Z,52.48
2022-08-19T05:58:23.233Z,52.39
2022-08-19T05:59:22.312Z,52.56
2022-08-19T06:00:24.704Z,52.57
2022-08-19T06:01:22.422Z,52.59
2022-08-19T06:02:22.565Z,52.66
2022-08-19T06:03:22.582Z,52.60
2022-08-19T06:04:22.666Z,52.62
2022-08-19T06:05:22.754Z,52.61
2022-08-19T06:06:22.858Z,52.67
2022-08-19T06:07:23.013Z,52.66
2022-08-19T06:08:34.432Z,52.63
2022-08-19T06:09:23.073Z,52.72
2022-08-19T06:10:23.190Z,52.77
2022-08-19T06:11:23.249Z,52.59
2022-08-19T06:12:23.305Z,52.69
2022-08-19T06:13:23.388Z,52.81
2022-08-19T06:14:27.873Z,52.68
2022-08-19T06:15:23.537Z,52.81
2022-08-19T06:16:23.641Z,52.95
2022-08-19T06:17:23.725Z,52.87
2022-08-19T06:18:23.810Z,52.97
2022-08-19T06:19:23.898Z,52.99
2022-08-19T06:20:45.924Z,52.98
2022-08-19T06:21:24.027Z,52.84
2022-08-19T06:22:24.111Z,52.91
2022-08-19T06:23:24.525Z,52.95
2022-08-19T06:24:24.279Z,52.94
2022-08-19T06:25:27.815Z,52.90
2022-08-19T06:26:24.458Z,52.83
2022-08-19T06:27:24.512Z,52.91
2022-08-19T06:28:24.596Z,52.94
2022-08-19T06:29:24.655Z,52.78
2022-08-19T06:30:24.738Z,52.74
2022-08-19T06:31:24.841Z,52.99
2022-08-19T06:32:24.907Z,52.81
2022-08-19T06:33:24.991Z,52.81
2022-08-19T06:34:25.039Z,52.68
2022-08-19T06:35:25.134Z,52.74
2022-08-19T06:36:25.333Z,52.71
2022-08-19T06:37:25.257Z,52.75
2022-08-19T06:38:25.329Z,52.65
2022-08-19T06:39:25.443Z,52.70
2022-08-19T06:40:25.531Z,52.70
2022-08-19T06:41:25.614Z,52.61
2022-08-19T06:42:25.699Z,52.68
2022-08-19T06:43:28.196Z,52.59
2022-08-19T06:44:25.890Z,52.65
2022-08-19T06:45:34.928Z,52.62
2022-08-19T06:46:26.010Z,52.72
2022-08-19T06:47:28.861Z,52.62
2022-08-19T06:48:26.235Z,52.62
2022-08-19T06:49:26.233Z,52.62
2022-08-19T06:50:26.379Z,52.67
2022-08-19T06:51:26.406Z,52.63
2022-08-19T06:52:26.494Z,52.60
2022-08-19T06:53:26.519Z,52.59
2022-08-19T06:54:30.838Z,52.64
2022-08-19T06:55:26.696Z,52.57
2022-08-19T06:56:26.827Z,52.59
2022-08-19T06:57:26.860Z,52.51
2022-08-19T06:58:26.966Z,52.57
2022-08-19T06:59:27.000Z,52.53
2022-08-19T07:00:27.241Z,52.49
2022-08-19T07:01:27.169Z,52.50
2022-08-19T07:02:27.321Z,52.42
2022-08-19T07:03:27.323Z,52.49
2022-08-19T07:04:27.415Z,52.43
2022-08-19T07:05:27.500Z,52.53
2022-08-19T07:06:43.489Z,52.51
2022-08-19T07:07:27.647Z,52.53
2022-08-19T07:08:29.284Z,52.62
2022-08-19T07:09:27.821Z,52.50
2022-08-19T07:10:27.914Z,52.52
2022-08-19T07:11:27.963Z,52.57
2022-08-19T07:12:28.085Z,52.60
2022-08-19T07:13:28.150Z,52.58
2022-08-19T07:14:28.206Z,52.49
2022-08-19T07:15:28.292Z,52.41
2022-08-19T07:16:29.383Z,52.57
2022-08-19T07:17:28.430Z,52.56
2022-08-19T07:18:28.525Z,52.58
2022-08-19T07:19:28.579Z,52.52
2022-08-19T07:20:29.520Z,52.49
2022-08-19T07:21:29.617Z,52.50
2022-08-19T07:22:28.870Z,52.48
2022-08-19T07:23:28.968Z,52.46
2022-08-19T07:24:31.185Z,52.48
2022-08-19T07:25:32.451Z,52.45
2022-08-19T07:26:29.189Z,52.47
2022-08-19T07:27:29.269Z,52.44
2022-08-19T07:28:29.376Z,52.40
2022-08-19T07:29:29.462Z,52.43
2022-08-19T07:30:29.499Z,52.46
2022-08-19T07:31:31.221Z,52.42
2022-08-19T07:32:29.630Z,52.48
2022-08-19T07:33:29.725Z,52.44
2022-08-19T07:34:29.806Z,52.43
2022-08-19T07:35:29.876Z,52.43
2022-08-19T07:36:29.926Z,52.43
2022-08-19T07:37:33.111Z,52.42
2022-08-19T07:38:30.153Z,52.43
2022-08-19T07:39:30.234Z,52.43
2022-08-19T07:40:30.274Z,52.42
2022-08-19T07:41:30.350Z,52.42
2022-08-19T07:42:30.431Z,52.37
2022-08-19T07:43:34.938Z,52.36
2022-08-19T07:44:30.674Z,52.40
2022-08-19T07:45:30.719Z,52.41
2022-08-19T07:46:30.782Z,52.35
2022-08-19T07:47:49.906Z,52.35
2022-08-19T07:48:30.926Z,52.39
2022-08-19T07:49:31.010Z,52.41
2022-08-19T07:50:31.115Z,52.37
2022-08-19T07:51:36.236Z,52.35
2022-08-19T07:52:31.291Z,52.38
2022-08-19T07:53:31.368Z,52.30
2022-08-19T07:54:31.450Z,52.39
2022-08-19T07:55:40.334Z,52.36
2022-08-19T07:56:31.634Z,52.41
2022-08-19T07:57:31.803Z,52.38
2022-08-19T07:58:31.789Z,52.41
2022-08-19T07:59:31.862Z,52.35
2022-08-19T08:00:31.967Z,52.30
2022-08-19T08:01:32.074Z,52.34
2022-08-19T08:02:32.151Z,52.39
2022-08-19T08:03:32.194Z,52.33
2022-08-19T08:04:32.278Z,52.38
2022-08-19T08:05:34.904Z,52.49
2022-08-19T08:06:32.426Z,52.44
2022-08-19T08:07:32.533Z,52.40
2022-08-19T08:08:32.605Z,52.42
2022-08-19T08:09:32.732Z,52.40
2022-08-19T08:10:32.766Z,52.41
2022-08-19T08:11:32.843Z,52.43
2022-08-19T08:12:34.972Z,52.45
2022-08-19T08:13:33.014Z,52.45
2022-08-19T08:14:34.982Z,52.39
2022-08-19T08:15:33.181Z,52.47
2022-08-19T08:16:33.260Z,52.43
2022-08-19T08:17:49.443Z,52.41
2022-08-19T08:18:33.423Z,52.34
2022-08-19T08:19:33.542Z,52.40
2022-08-19T08:20:33.582Z,52.41
2022-08-19T08:21:33.745Z,52.42
2022-08-19T08:22:33.735Z,52.36
2022-08-19T08:23:33.814Z,52.34
2022-08-19T08:24:33.926Z,52.39
2022-08-19T08:25:34.224Z,52.37
2022-08-19T08:26:34.522Z,52.31
2022-08-19T08:27:34.157Z,52.36
2022-08-19T08:28:34.227Z,52.37
2022-08-19T08:29:35.018Z,52.46
2022-08-19T08:30:34.398Z,52.46
2022-08-19T08:31:34.482Z,52.36
2022-08-19T08:32:34.564Z,52.38
2022-08-19T08:33:35.338Z,52.44
2022-08-19T08:34:34.717Z,52.41
2022-08-19T08:35:34.811Z,52.38
2022-08-19T08:36:34.880Z,52.37
2022-08-19T08:37:34.977Z,52.45
2022-08-19T08:38:39.768Z,52.50
2022-08-19T08:39:35.210Z,52.45
2022-08-19T08:40:35.203Z,52.47
2022-08-19T08:41:35.348Z,52.50
2022-08-19T08:42:35.389Z,52.39
2022-08-19T08:43:35.492Z,52.48
2022-08-19T08:44:35.585Z,52.47
2022-08-19T08:45:41.152Z,52.42
2022-08-19T08:46:35.734Z,52.33
2022-08-19T08:47:35.811Z,52.27
2022-08-19T08:48:35.860Z,52.33
2022-08-19T08:49:36.117Z,52.28
2022-08-19T08:50:36.042Z,52.27
2022-08-19T08:51:36.165Z,52.31
2022-08-19T08:52:36.197Z,52.39
2022-08-19T08:53:40.435Z,52.34
2022-08-19T08:54:36.397Z,52.37
2022-08-19T08:55:37.416Z,52.31
2022-08-19T08:56:36.500Z,52.28
2022-08-19T08:57:40.589Z,52.25
2022-08-19T08:58:36.678Z,52.35
2022-08-19T08:59:36.757Z,52.24
2022-08-19T09:00:36.825Z,52.35
2022-08-19T09:01:36.883Z,52.26
2022-08-19T09:02:36.959Z,52.19
2022-08-19T09:03:37.023Z,52.26
2022-08-19T09:04:37.103Z,52.27
2022-08-19T09:05:39.658Z,52.25
2022-08-19T09:06:37.281Z,52.26
2022-08-19T09:07:38.850Z,52.31
2022-08-19T09:08:37.408Z,52.33
2022-08-19T09:09:37.515Z,52.31
2022-08-19T09:10:44.332Z,52.33
2022-08-19T09:11:42.782Z,52.31
2022-08-19T09:12:37.779Z,52.30
2022-08-19T09:13:37.953Z,52.32
2022-08-19T09:14:50.344Z,52.26
2022-08-19T09:15:38.008Z,52.24
2022-08-19T09:16:38.039Z,52.19
2022-08-19T09:17:38.117Z,52.20
2022-08-19T09:18:38.206Z,52.20
2022-08-19T09:19:38.269Z,52.18
2022-08-19T09:20:38.367Z,52.22
2022-08-19T09:21:38.442Z,52.19
2022-08-19T09:22:38.530Z,52.25
2022-08-19T09:23:38.637Z,52.18
2022-08-19T09:24:39.217Z,52.18
2022-08-19T09:25:38.788Z,52.23
2022-08-19T09:26:52.373Z,52.13
2022-08-19T09:27:43.165Z,52.18
2022-08-19T09:28:39.092Z,52.14
2022-08-19T09:29:39.126Z,52.10
2022-08-19T09:30:39.161Z,52.20
2022-08-19T09:31:39.227Z,52.23
2022-08-19T09:32:39.310Z,52.16
2022-08-19T09:33:39.384Z,52.14
2022-08-19T09:34:39.452Z,52.20
2022-08-19T09:35:50.081Z,52.15
2022-08-19T09:36:39.628Z,52.20
2022-08-19T09:37:47.251Z,52.15
2022-08-19T09:38:43.383Z,52.15
2022-08-19T09:39:39.925Z,52.22
2022-08-19T09:40:39.947Z,52.14
2022-08-19T09:41:40.032Z,52.13
2022-08-19T09:42:49.790Z,52.08
2022-08-19T09:43:44.224Z,52.12
2022-08-19T09:44:40.259Z,52.08
2022-08-19T09:45:40.352Z,51.99
2022-08-19T09:46:40.436Z,51.96
2022-08-19T09:47:40.677Z,51.90
2022-08-19T09:48:40.576Z,51.91
2022-08-19T09:49:40.674Z,51.91
2022-08-19T09:50:51.797Z,51.90
2022-08-19T09:51:40.818Z,51.95
2022-08-19T09:52:40.892Z,51.93
2022-08-19T09:53:40.976Z,51.90
2022-08-19T09:54:41.092Z,51.91
2022-08-19T09:55:41.153Z,51.88
2022-08-19T09:56:42.362Z,51.90
2022-08-19T09:57:41.310Z,51.90
2022-08-19T09:58:41.390Z,51.82
2022-08-19T09:59:41.504Z,51.82
2022-08-19T10:00:41.561Z,51.80
2022-08-19T10:01:41.691Z,51.81
2022-08-19T10:02:41.686Z,51.80
2022-08-19T10:03:41.792Z,51.78
2022-08-19T10:04:41.877Z,51.72
2022-08-19T10:05:42.359Z,51.72
2022-08-19T10:06:46.702Z,51.69
2022-08-19T10:07:42.122Z,51.71
2022-08-19T10:08:50.452Z,51.67
2022-08-19T10:09:42.278Z,51.67
2022-08-19T10:10:43.121Z,51.63
2022-08-19T10:11:49.853Z,51.67
2022-08-19T10:12:42.515Z,51.68
2022-08-19T10:13:42.584Z,51.66
2022-08-19T10:14:42.652Z,51.65
2022-08-19T10:15:47.592Z,51.53
2022-08-19T10:16:42.851Z,51.54
2022-08-19T10:17:48.076Z,51.52
2022-08-19T10:18:44.210Z,51.53
2022-08-19T10:19:43.065Z,51.56
2022-08-19T10:20:43.396Z,51.54
2022-08-19T10:21:43.226Z,51.49
2022-08-19T10:22:43.273Z,51.53
2022-08-19T10:23:43.364Z,51.54
2022-08-19T10:24:43.438Z,51.53
2022-08-19T10:25:43.593Z,51.54
2022-08-19T10:26:43.566Z,51.58
2022-08-19T10:27:46.564Z,51.58
2022-08-19T10:28:43.758Z,51.64
2022-08-19T10:29:46.376Z,51.69
2022-08-19T10:30:43.912Z,51.68
2022-08-19T10:31:59.934Z,51.67
2022-08-19T10:32:46.335Z,51.62
2022-08-19T10:33:54.197Z,51.64
2022-08-19T10:34:48.364Z,51.67
2022-08-19T10:35:56.789Z,51.65
2022-08-19T10:36:52.270Z,51.66
2022-08-19T10:37:57.549Z,51.67
2022-08-19T10:38:52.255Z,51.72
2022-08-19T10:39:44.742Z,51.78
2022-08-19T10:40:44.733Z,51.71
2022-08-19T10:41:44.837Z,51.68
2022-08-19T10:42:44.897Z,51.71
2022-08-19T10:43:45.006Z,51.66
2022-08-19T10:44:45.054Z,51.65
2022-08-19T10:45:52.580Z,51.64
2022-08-19T10:46:48.744Z,51.67
2022-08-19T10:47:45.289Z,51.70
2022-08-19T10:48:45.426Z,51.71
2022-08-19T10:49:45.464Z,51.70
2022-08-19T10:50:45.549Z,51.65
2022-08-19T10:51:48.590Z,51.68
2022-08-19T10:52:49.924Z,51.71
2022-08-19T10:53:45.807Z,51.69
2022-08-19T10:54:45.856Z,51.68
2022-08-19T10:55:45.951Z,51.64
2022-08-19T10:56:46.033Z,51.68
2022-08-19T10:58:03.463Z,51.65
2022-08-19T10:58:46.218Z,51.70
2022-08-19T10:59:46.264Z,51.61
2022-08-19T11:00:46.374Z,51.54
2022-08-19T11:01:46.444Z,51.56
2022-08-19T11:02:46.527Z,51.50
2022-08-19T11:03:46.645Z,51.46
2022-08-19T11:04:46.692Z,51.49
2022-08-19T11:05:46.761Z,51.42
2022-08-19T11:06:46.825Z,51.42
2022-08-19T11:07:47.054Z,51.37
2022-08-19T11:08:46.999Z,51.36
2022-08-19T11:09:47.096Z,51.32
2022-08-19T11:10:48.043Z,51.35
2022-08-19T11:11:47.231Z,51.36
2022-08-19T11:12:47.307Z,51.35
2022-08-19T11:13:47.411Z,51.38
2022-08-19T11:14:47.448Z,51.32
2022-08-19T11:15:47.536Z,51.27
2022-08-19T11:16:47.656Z,51.28
2022-08-19T11:17:47.677Z,51.28
2022-08-19T11:18:47.772Z,51.23
2022-08-19T11:19:47.863Z,51.25
2022-08-19T11:20:47.942Z,51.22
2022-08-19T11:21:47.997Z,51.18
2022-08-19T11:22:48.087Z,51.14
2022-08-19T11:23:48.199Z,51.15
2022-08-19T11:24:48.262Z,51.13
2022-08-19T11:25:48.335Z,51.06
2022-08-19T11:26:48.442Z,51.12
2022-08-19T11:27:48.536Z,51.12
2022-08-19T11:28:48.577Z,51.03
2022-08-19T11:29:48.665Z,51.08
2022-08-19T11:30:48.760Z,51.03
2022-08-19T11:31:48.807Z,50.99
2022-08-19T11:32:49.642Z,51.02
2022-08-19T11:33:48.985Z,51.01
2022-08-19T11:34:49.029Z,50.98
2022-08-19T11:35:49.143Z,51.02
2022-08-19T11:36:49.192Z,51.01
2022-08-19T11:37:49.268Z,51.00
2022-08-19T11:38:49.360Z,50.98
2022-08-19T11:39:53.342Z,50.97
2022-08-19T11:40:49.509Z,50.96
2022-08-19T11:41:49.560Z,50.95
2022-08-19T11:42:49.645Z,50.97
2022-08-19T11:43:49.782Z,50.95
2022-08-19T11:44:49.820Z,50.93
2022-08-19T11:45:49.907Z,50.90
2022-08-19T11:46:50.023Z,50.90
2022-08-19T11:47:50.170Z,50.93
2022-08-19T11:48:50.228Z,50.91
2022-08-19T11:49:50.245Z,50.89
2022-08-19T11:50:50.334Z,50.88
2022-08-19T11:51:50.405Z,50.88
2022-08-19T11:52:50.502Z,50.86
2022-08-19T11:53:50.607Z,50.89
2022-08-19T11:54:50.682Z,50.87
2022-08-19T11:55:50.721Z,50.85
2022-08-19T11:56:50.797Z,50.86
2022-08-19T11:57:50.869Z,50.80
2022-08-19T11:58:50.983Z,50.78
2022-08-19T11:59:51.031Z,50.74
2022-08-19T12:00:51.128Z,50.74
2022-08-19T12:01:51.176Z,50.72
2022-08-19T12:02:51.282Z,50.69
2022-08-19T12:03:51.429Z,50.65
2022-08-19T12:04:51.470Z,50.67
2022-08-19T12:05:51.532Z,50.67
2022-08-19T12:06:51.624Z,50.63
2022-08-19T12:07:51.712Z,50.62
2022-08-19T12:08:51.809Z,50.60
2022-08-19T12:09:51.871Z,50.60
2022-08-19T12:10:51.939Z,50.61
2022-08-19T12:11:52.037Z,50.65
2022-08-19T12:12:58.834Z,50.62
2022-08-19T12:13:52.203Z,50.63
2022-08-19T12:14:52.294Z,50.64
2022-08-19T12:15:52.341Z,50.61
2022-08-19T12:16:52.670Z,50.59
2022-08-19T12:17:52.536Z,50.59
2022-08-19T12:18:52.592Z,50.57
2022-08-19T12:19:52.671Z,50.62
2022-08-19T12:20:53.009Z,50.59
2022-08-19T12:21:52.837Z,50.68
2022-08-19T12:22:52.940Z,50.59
2022-08-19T12:23:55.773Z,50.59
2022-08-19T12:24:53.108Z,50.58
2022-08-19T12:25:53.149Z,50.61
2022-08-19T12:26:54.091Z,50.58
2022-08-19T12:27:57.446Z,50.55
2022-08-19T12:28:53.386Z,50.58
2022-08-19T12:29:53.482Z,50.64
2022-08-19T12:30:53.644Z,50.67
2022-08-19T12:31:53.611Z,50.60
2022-08-19T12:32:53.714Z,50.67
2022-08-19T12:33:53.755Z,50.71
2022-08-19T12:34:53.841Z,50.63
2022-08-19T12:35:53.941Z,50.70
2022-08-19T12:36:54.043Z,50.70
2022-08-19T12:37:57.121Z,50.65
2022-08-19T12:38:54.202Z,50.71
2022-08-19T12:39:54.362Z,50.67
2022-08-19T12:40:59.682Z,50.68
2022-08-19T12:41:55.233Z,50.71
2022-08-19T12:42:54.670Z,50.68
2022-08-19T12:43:54.588Z,50.69
2022-08-19T12:44:54.703Z,50.70
2022-08-19T12:45:54.746Z,50.61
2022-08-19T12:46:54.873Z,50.70
2022-08-19T12:47:55.440Z,50.69
2022-08-19T12:48:55.302Z,50.70
2022-08-19T12:49:55.915Z,50.69
2022-08-19T12:50:55.170Z,50.70
2022-08-19T12:51:55.237Z,50.73
2022-08-19T12:52:55.327Z,50.77
2022-08-19T12:53:55.405Z,50.76